Decoded Metar for LFBL (LIMOGES in FRANCE) (IATA:LIG) | Meteo·Mobile Aviation Weather
aviador You're here:

LFBL Decoded Metar

LIMOGES in FRANCE
Report Time2018-08-21 16:00:00
UTC Time2018-08-21 16:07:42
Flight Rules vfr VFR
Wind340° at 08 kt
W.Decomp.*RWY 03: 5.2 kt HW 6 kt LCW
W.Rank340° ranks 25
Current wind is above 340° avg. (5.9)
Visibility9999 m
Phenomena:N/A
Clouds:N/A
Expected CloudBase > 5,600 ft AGL from Temp-Dew spread
CeilingNone
Temp29°C (ISA +17)
Dew Point15°C (43% RH)
Heat Index28.9°C
AAT27.8°C
QNH1017 hPa
Density Alt3,320 ft
Elevation1,319 ft
Report Wrong Elevation
Raw Report
METAR LFBL 211600Z AUTO 34008KT 300V020 CAVOK 29/15 Q1017 NOSIG=

Extra information for LFBL:More info

Metar Taf Metar & Taf Last 4 Metars F.Rules Stats Wind Profile Meteogram Temp Stats Airport Information Weather charts Add Link Nearby VenuesMetar ALERT Operation Metar Decoded Social comments